Time;durP1;ratioP1;P1;durP2;ratioP2;P2;SDS_P1;SDS_P2;PMS_P1;PMS_P2;Temp;Humidity;BMP_temperature;BMP_pressure;BME280_temperature;BME280_humidity;BME280_pressure;Samples;Min_cycle;Max_cycle;Signal;HPM_P1;HPM_P2
2022/04/28 00:01:14;;;;;;;25.38;6.85;;;;;;;22.36;42.18;101666.81;4183321;28;19913;-65
2022/04/28 00:03:15;;;;;;;21.23;6.75;;;;;;;22.36;42.12;101661.25;4183348;28;20045;-65
2022/04/28 00:05:17;;;;;;;16.40;6.35;;;;;;;22.20;42.68;101640.81;4182868;28;20044;-65
2022/04/28 00:07:19;;;;;;;19.17;5.88;;;;;;;22.29;42.41;101663.44;4183453;28;20037;-65
2022/04/28 00:09:23;;;;;;;19.50;5.78;;;;;;;22.18;42.16;101645.84;4182208;28;20078;-66
2022/04/28 00:11:25;;;;;;;19.53;5.30;;;;;;;22.28;42.23;101665.38;4183672;28;20040;-66
2022/04/28 00:13:27;;;;;;;19.67;5.65;;;;;;;22.27;42.38;101672.09;4182996;28;20469;-66
2022/04/28 00:15:30;;;;;;;16.92;5.95;;;;;;;22.27;42.39;101669.28;4183008;28;20029;-66
2022/04/28 00:17:31;;;;;;;15.10;5.50;;;;;;;22.12;42.14;101641.34;4183062;28;20087;-66
2022/04/28 00:19:33;;;;;;;20.00;5.43;;;;;;;22.25;42.48;101654.78;4183120;28;20037;-65
2022/04/28 00:21:34;;;;;;;25.55;6.28;;;;;;;22.26;42.32;101652.81;4183561;28;20107;-65
2022/04/28 00:23:39;;;;;;;19.30;5.43;;;;;;;22.22;42.23;101646.97;4183275;28;20545;-66
2022/04/28 00:25:42;;;;;;;14.50;5.28;;;;;;;22.23;42.42;101659.81;4182812;28;20087;-65
2022/04/28 00:27:44;;;;;;;14.50;5.20;;;;;;;22.24;42.16;101655.91;4183075;28;20098;-65
2022/04/28 00:29:46;;;;;;;15.18;4.68;;;;;;;22.24;42.04;101661.47;4183446;28;20028;-65
2022/04/28 00:31:48;;;;;;;15.60;5.25;;;;;;;22.23;42.35;101661.75;4183365;28;20045;-67
2022/04/28 00:33:49;;;;;;;13.30;5.20;;;;;;;22.23;42.36;101659.81;4182956;28;20033;-67
2022/04/28 00:35:54;;;;;;;16.40;5.00;;;;;;;22.16;42.18;101656.41;4182492;28;20098;-66
2022/04/28 00:37:55;;;;;;;10.25;4.95;;;;;;;22.22;41.91;101663.72;4182743;28;20388;-67
2022/04/28 00:40:01;;;;;;;13.73;4.90;;;;;;;22.11;41.87;101650.78;4182487;28;20435;-66
2022/04/28 00:42:10;;;;;;;18.08;5.18;;;;;;;22.20;42.13;101677.06;4183070;28;20435;-67
2022/04/28 00:44:12;;;;;;;16.83;5.30;;;;;;;22.21;42.27;101673.16;4182470;28;20044;-66
2022/04/28 00:46:13;;;;;;;16.75;4.63;;;;;;;22.22;42.27;101674.00;4182655;28;20049;-67
2022/04/28 00:50:41;;;;;;;14.18;4.18;;;;;;;22.05;41.95;101646.31;4182675;28;20106;-67
2022/04/28 00:52:42;;;;;;;10.20;4.00;;;;;;;22.15;42.25;101668.69;4182709;28;20087;-67
2022/04/28 00:54:45;;;;;;;12.63;4.40;;;;;;;22.19;42.23;101683.75;4182699;28;20041;-66
2022/04/28 00:56:46;;;;;;;9.90;4.45;;;;;;;22.15;41.72;101679.00;4182474;28;20644;-67
2022/04/28 00:58:51;;;;;;;11.35;4.25;;;;;;;22.17;41.92;101691.53;4182769;28;20534;-67
2022/04/28 01:00:58;;;;;;;15.23;4.65;;;;;;;22.14;42.19;101680.09;4183072;28;20468;-67
2022/04/28 01:03:00;;;;;;;10.80;4.32;;;;;;;22.18;42.13;101690.44;4182267;28;20412;-67
2022/04/28 01:05:01;;;;;;;9.32;4.00;;;;;;;22.16;41.69;101695.44;4182574;28;20045;-67
2022/04/28 01:07:04;;;;;;;11.82;3.85;;;;;;;22.14;42.34;101689.31;4182669;28;20437;-65
2022/04/28 01:09:05;;;;;;;10.38;3.30;;;;;;;22.15;42.19;101690.97;4182436;28;20041;-66
2022/04/28 01:11:07;;;;;;;12.75;3.72;;;;;;;22.05;42.06;101686.16;4182469;28;20125;-66
2022/04/28 01:13:09;;;;;;;8.38;3.53;;;;;;;22.14;41.80;101697.66;4182261;28;20096;-66
2022/04/28 01:15:13;;;;;;;11.52;3.88;;;;;;;22.15;42.08;101718.84;4181745;28;20045;-65
2022/04/28 01:17:17;;;;;;;11.67;3.73;;;;;;;22.15;41.80;101695.72;4181854;28;20041;-67
2022/04/28 01:19:18;;;;;;;12.80;3.40;;;;;;;22.12;42.04;101708.22;4182488;28;20099;-67
2022/04/28 01:21:20;;;;;;;11.38;4.53;;;;;;;22.13;41.93;101715.50;4181176;28;20091;-67
2022/04/28 01:23:21;;;;;;;10.63;3.50;;;;;;;22.12;41.57;101713.81;4182646;28;20091;-65
2022/04/28 01:25:23;;;;;;;7.30;3.17;;;;;;;22.11;41.69;101709.31;4181641;28;20454;-66
2022/04/28 01:27:26;;;;;;;9.48;3.60;;;;;;;22.10;41.92;101704.84;4181862;28;20542;-66
2022/04/28 01:29:27;;;;;;;12.98;3.65;;;;;;;22.10;41.87;101716.00;4182264;28;20094;-65
2022/04/28 01:31:29;;;;;;;8.40;3.15;;;;;;;22.10;41.79;101716.00;4182018;28;20041;-65
2022/04/28 01:33:30;;;;;;;10.60;3.35;;;;;;;22.06;41.92;101720.44;4181549;28;20041;-67
2022/04/28 01:35:31;;;;;;;8.10;3.35;;;;;;;22.10;41.52;101713.22;4182039;28;20546;-67
2022/04/28 01:37:33;;;;;;;12.23;3.17;;;;;;;21.96;41.75;101706.47;4182043;28;20049;-67
2022/04/28 01:39:35;;;;;;;13.95;2.90;;;;;;;21.97;42.05;101705.34;4182095;28;20040;-67
2022/04/28 01:41:37;;;;;;;7.50;3.03;;;;;;;22.09;41.88;101728.28;4182426;28;20032;-67
2022/04/28 01:43:41;;;;;;;5.22;2.65;;;;;;;22.08;41.48;101730.22;4181686;28;20041;-67
2022/04/28 01:45:43;;;;;;;8.23;3.22;;;;;;;22.03;41.65;101715.41;4181223;28;20045;-67
2022/04/28 01:47:44;;;;;;;9.95;3.15;;;;;;;22.08;41.94;101724.66;4181332;28;20098;-65
2022/04/28 01:49:45;;;;;;;5.32;2.70;;;;;;;22.04;41.76;101722.69;4181951;28;20037;-65
2022/04/28 01:56:29;;;;;;;9.43;3.45;;;;;;;22.05;41.60;101727.13;4184758;28;20415;-65
2022/04/28 01:58:30;;;;;;;6.13;2.47;;;;;;;22.05;41.32;101735.50;4184076;28;20048;-65
2022/04/28 02:00:32;;;;;;;6.50;3.17;;;;;;;21.96;41.50;101721.22;4183177;28;20057;-66
2022/04/28 02:02:34;;;;;;;11.02;3.28;;;;;;;22.04;41.21;101740.22;4183166;28;20045;-68
2022/04/28 02:04:36;;;;;;;6.60;2.92;;;;;;;22.05;41.50;101741.06;4183326;28;20045;-66
2022/04/28 02:06:37;;;;;;;5.35;2.83;;;;;;;22.03;41.55;101746.06;4182117;28;20025;-67
2022/04/28 02:08:41;;;;;;;6.45;2.90;;;;;;;21.87;41.47;101705.28;4181993;28;20091;-66
2022/04/28 02:10:45;;;;;;;6.87;2.80;;;;;;;22.00;41.68;101738.25;4181913;28;20045;-66
2022/04/28 02:12:55;;;;;;;6.47;2.37;;;;;;;22.00;41.59;101732.69;4181819;28;20305;-67
2022/04/28 02:14:57;;;;;;;7.38;2.83;;;;;;;22.00;41.66;101738.25;4181763;28;20774;-67
2022/04/28 02:16:58;;;;;;;6.10;2.90;;;;;;;21.94;41.47;101725.38;4182096;28;20538;-69
2022/04/28 02:18:59;;;;;;;5.00;2.45;;;;;;;22.00;41.45;101735.47;4181556;28;20041;-66
2022/04/28 02:21:01;;;;;;;4.85;2.13;;;;;;;22.00;41.71;101735.47;4181100;28;20106;-67
2022/04/28 02:23:02;;;;;;;9.02;3.22;;;;;;;21.99;41.33;101742.13;4181439;28;20041;-67
2022/04/28 02:25:05;;;;;;;11.63;2.45;;;;;;;21.99;41.58;101742.13;4181543;28;20041;-66
2022/04/28 02:27:07;;;;;;;5.72;2.63;;;;;;;21.98;41.59;101734.88;4181706;28;20045;-66
2022/04/28 02:29:08;;;;;;;7.85;2.15;;;;;;;21.97;41.40;101742.41;4181111;28;20114;-66
2022/04/28 02:31:09;;;;;;;7.00;2.08;;;;;;;21.97;41.50;101733.22;4181506;28;20045;-66
2022/04/28 02:33:11;;;;;;;4.03;2.50;;;;;;;21.91;41.33;101720.34;4181342;28;20522;-66
2022/04/28 02:35:12;;;;;;;8.20;2.83;;;;;;;21.96;41.36;101737.94;4180539;28;20044;-67
2022/04/28 02:37:14;;;;;;;7.60;2.80;;;;;;;21.83;41.23;101711.38;4180404;28;20103;-67
2022/04/28 02:39:17;;;;;;;4.93;2.05;;;;;;;21.94;41.46;101733.75;4181459;28;20095;-67
2022/04/28 02:41:21;;;;;;;5.32;2.33;;;;;;;21.96;41.39;101742.69;4180762;28;20040;-65
2022/04/28 02:43:23;;;;;;;6.57;2.03;;;;;;;21.95;41.31;101741.84;4180834;28;20107;-66
2022/04/28 02:45:26;;;;;;;5.20;2.38;;;;;;;21.94;41.11;101739.31;4181440;28;20464;-68
2022/04/28 02:47:28;;;;;;;5.32;2.45;;;;;;;21.92;41.31;101735.97;4181033;28;20049;-66
2022/04/28 02:49:32;;;;;;;5.93;2.17;;;;;;;21.93;41.37;101755.19;4181318;28;20041;-66
2022/04/28 02:51:34;;;;;;;4.43;1.90;;;;;;;21.80;41.01;101728.63;4181404;28;20044;-66
2022/04/28 02:53:35;;;;;;;4.57;2.40;;;;;;;21.94;40.88;101750.47;4182620;28;20037;-66
2022/04/28 02:55:39;;;;;;;4.15;2.10;;;;;;;21.93;41.46;101737.63;4181911;28;20037;-66
2022/04/28 02:57:41;;;;;;;4.35;2.15;;;;;;;21.92;40.93;101752.69;4183942;28;20025;-66
2022/04/28 02:59:43;;;;;;;3.35;2.08;;;;;;;21.93;41.31;101751.56;4185557;28;20033;-66
2022/04/28 03:01:44;;;;;;;3.53;1.98;;;;;;;21.93;41.27;101743.22;4168550;28;20038;-66
2022/04/28 03:03:46;;;;;;;4.22;1.85;;;;;;;21.91;41.33;101742.66;4187251;28;20118;-66
2022/04/28 03:12:47;;;;;;;3.75;1.75;;;;;;;21.88;40.93;101743.19;4184893;28;20075;-66
2022/04/28 03:14:49;;;;;;;3.08;1.80;;;;;;;21.90;40.77;101743.72;4185267;28;20037;-66
2022/04/28 03:16:50;;;;;;;3.60;1.88;;;;;;;21.85;40.91;101740.91;4167182;28;20080;-66
2022/04/28 03:18:52;;;;;;;4.03;1.48;;;;;;;21.78;40.73;101730.84;4183285;28;20028;-66
2022/04/28 03:20:54;;;;;;;2.80;1.42;;;;;;;21.85;41.02;101743.72;4184594;28;20037;-66
2022/04/28 03:22:56;;;;;;;2.95;1.50;;;;;;;21.76;40.97;101727.50;4184710;28;20037;-66
2022/04/28 03:24:57;;;;;;;7.18;2.08;;;;;;;21.83;40.74;101739.25;4184407;28;20045;-66
2022/04/28 03:26:59;;;;;;;3.75;1.70;;;;;;;21.86;41.15;101759.34;4184140;28;20522;-66
2022/04/28 03:29:00;;;;;;;3.92;1.60;;;;;;;21.83;40.99;101755.97;4184676;28;20091;-66
2022/04/28 03:31:03;;;;;;;3.75;1.58;;;;;;;21.82;40.99;101759.88;4184273;28;20114;-66
2022/04/28 03:33:05;;;;;;;3.38;2.00;;;;;;;21.81;40.81;101757.34;4184671;28;20041;-66
2022/04/28 03:35:06;;;;;;;3.25;1.83;;;;;;;21.77;41.29;101757.03;4184486;28;20098;-65
2022/04/28 03:37:08;;;;;;;2.22;1.42;;;;;;;21.81;41.24;101766.56;4184790;28;20561;-66
2022/04/28 03:39:09;;;;;;;2.65;1.83;;;;;;;21.81;41.30;101766.56;4184473;28;20033;-67
2022/04/28 03:41:13;;;;;;;4.22;1.45;;;;;;;21.81;40.83;101763.75;4183960;28;20099;-66
2022/04/28 03:43:14;;;;;;;4.78;1.42;;;;;;;21.27;41.08;101671.97;4184684;28;20045;-66
2022/04/28 03:45:16;;;;;;;2.78;1.30;;;;;;;21.77;41.20;101757.03;4183913;28;20094;-66
2022/04/28 03:47:17;;;;;;;2.55;1.50;;;;;;;21.77;41.28;101762.63;4184549;28;20049;-66
2022/04/28 03:49:19;;;;;;;3.35;1.48;;;;;;;21.80;40.80;101767.63;4184670;28;20087;-67
2022/04/28 03:51:20;;;;;;;3.08;1.58;;;;;;;21.80;40.97;101775.16;4184344;28;20041;-65
2022/04/28 03:53:21;;;;;;;3.80;1.70;;;;;;;21.76;40.91;101777.66;4185093;28;20040;-65
2022/04/28 03:55:24;;;;;;;2.28;1.42;;;;;;;21.71;40.94;101758.09;4184669;28;20048;-67
2022/04/28 03:57:25;;;;;;;2.17;1.27;;;;;;;21.78;41.17;101769.84;4184174;28;20079;-67
2022/04/28 03:59:26;;;;;;;4.45;1.73;;;;;;;21.77;40.88;101801.63;4184132;28;20415;-67
2022/04/28 04:01:28;;;;;;;5.68;1.88;;;;;;;21.54;41.04;101751.84;4183987;28;20040;-67
2022/04/28 04:03:30;;;;;;;2.50;1.80;;;;;;;21.76;40.65;101782.38;4183566;28;20044;-67
2022/04/28 04:05:38;;;;;;;2.03;1.42;;;;;;;21.78;40.92;101788.53;4183563;28;20033;-67
2022/04/28 04:07:39;;;;;;;2.65;1.25;;;;;;;21.72;40.79;101779.28;4185020;28;20098;-66
2022/04/28 04:09:42;;;;;;;2.45;1.77;;;;;;;21.69;40.72;101782.59;4182522;28;20542;-66
2022/04/28 04:11:43;;;;;;;2.50;1.30;;;;;;;21.75;40.92;101784.31;4183639;28;20533;-67
2022/04/28 04:13:47;;;;;;;1.52;1.23;;;;;;;21.76;40.94;101782.38;4183747;28;20071;-66
2022/04/28 04:15:50;;;;;;;2.17;1.30;;;;;;;21.76;40.49;101794.38;4183161;28;20075;-66
2022/04/28 04:17:51;;;;;;;1.80;1.40;;;;;;;21.75;40.55;101792.66;4183757;28;20041;-66
2022/04/28 04:19:53;;;;;;;3.83;2.03;;;;;;;21.63;40.54;101782.84;4184065;28;20447;-66
2022/04/28 04:21:54;;;;;;;2.33;1.55;;;;;;;21.76;40.99;101810.22;4183655;28;20167;-66
2022/04/28 04:23:56;;;;;;;1.77;1.30;;;;;;;21.74;40.68;101793.78;4183852;28;20057;-66
2022/04/28 04:25:58;;;;;;;1.80;1.20;;;;;;;21.71;40.57;101799.88;4183162;28;20036;-67
2022/04/28 04:27:59;;;;;;;3.63;1.70;;;;;;;21.74;40.55;101807.72;4183777;28;20045;-67
2022/04/28 04:32:17;;;;;;;2.15;1.15;;;;;;;21.72;40.40;101804.38;4183871;28;20037;-67
2022/04/28 04:32:25;;;;;;;1.65;1.30;;;;;;;21.57;40.47;101779.97;4183182;28;20032;-67
2022/04/28 04:34:26;;;;;;;1.55;1.10;;;;;;;21.72;40.67;101815.50;4183347;28;20484;-67
2022/04/28 04:36:28;;;;;;;1.83;1.20;;;;;;;21.72;40.49;101804.38;4182695;28;20120;-67
2022/04/28 04:38:29;;;;;;;1.67;1.02;;;;;;;21.71;40.62;101801.81;4183036;28;20055;-68
2022/04/28 04:40:30;;;;;;;1.50;1.05;;;;;;;21.71;40.70;101805.44;4182999;28;20045;-67
2022/04/28 04:42:32;;;;;;;3.38;1.20;;;;;;;21.66;40.46;101799.84;4184510;28;20476;-65
2022/04/28 04:44:34;;;;;;;1.80;1.10;;;;;;;21.69;40.49;101804.88;4186023;28;20041;-67
2022/04/28 04:46:35;;;;;;;1.38;0.95;;;;;;;21.66;40.74;101804.56;4183035;28;20032;-66
2022/04/28 04:48:39;;;;;;;1.98;0.93;;;;;;;21.66;40.50;101804.56;4183145;28;20091;-65
2022/04/28 04:50:46;;;;;;;1.30;1.00;;;;;;;21.55;40.09;101796.13;4182692;28;20545;-66
2022/04/28 04:52:47;;;;;;;1.38;0.90;;;;;;;21.63;40.68;101817.09;4182647;28;20045;-66
2022/04/28 04:54:48;;;;;;;2.08;1.13;;;;;;;21.62;40.40;101809.81;4182975;28;20480;-66
2022/04/28 04:56:50;;;;;;;1.20;0.95;;;;;;;21.62;40.47;101812.59;4181919;28;20086;-66
2022/04/28 04:58:54;;;;;;;1.15;0.90;;;;;;;21.51;40.44;101796.94;4182516;28;20419;-66
2022/04/28 05:00:55;;;;;;;0.85;0.80;;;;;;;21.59;40.47;101804.81;4182707;28;20079;-65
2022/04/28 05:02:59;;;;;;;1.10;0.80;;;;;;;21.62;40.19;101809.00;4182784;28;20049;-66
2022/04/28 05:05:00;;;;;;;1.17;0.90;;;;;;;21.61;40.14;101819.28;4182849;28;20037;-67
2022/04/28 05:07:02;;;;;;;1.48;1.02;;;;;;;21.57;40.09;101799.47;4182600;28;20041;-67
2022/04/28 05:09:03;;;;;;;1.52;0.95;;;;;;;21.52;40.12;101796.66;4182712;28;20090;-67
2022/04/28 05:11:05;;;;;;;1.30;0.95;;;;;;;21.58;40.70;101808.69;4182827;28;20037;-67
2022/04/28 05:13:08;;;;;;;1.05;0.95;;;;;;;21.54;40.51;101801.97;4182804;28;20103;-67
2022/04/28 05:15:09;;;;;;;1.75;0.90;;;;;;;21.57;40.22;101807.00;4181970;28;20546;-66
2022/04/28 05:17:11;;;;;;;2.95;1.00;;;;;;;21.57;40.22;101812.56;4182166;28;20037;-66
2022/04/28 05:19:12;;;;;;;1.02;0.93;;;;;;;21.55;40.53;101812.84;4182370;28;20106;-66
2022/04/28 05:21:13;;;;;;;1.70;1.20;;;;;;;21.54;40.22;101807.53;4182252;28;20524;-66
2022/04/28 05:23:18;;;;;;;1.67;0.90;;;;;;;21.54;40.59;101808.38;4180666;28;20041;-66
2022/04/28 05:25:22;;;;;;;1.77;0.98;;;;;;;21.41;40.60;101777.34;4182192;28;20037;-66
2022/04/28 05:27:23;;;;;;;1.25;0.90;;;;;;;21.46;40.36;101788.53;4182116;28;20094;-66
2022/04/28 05:29:25;;;;;;;1.15;1.00;;;;;;;21.50;40.55;101786.91;4181799;28;20037;-66
2022/04/28 05:31:26;;;;;;;2.08;1.08;;;;;;;21.39;40.45;101782.31;4181239;28;20086;-66
2022/04/28 05:33:28;;;;;;;1.30;1.20;;;;;;;21.46;40.39;101794.09;4182297;28;20472;-67
2022/04/28 05:35:30;;;;;;;1.40;0.70;;;;;;;21.44;40.20;101785.16;4181890;28;20481;-66
2022/04/28 05:37:31;;;;;;;1.38;1.00;;;;;;;21.52;40.25;101804.16;4182256;28;20033;-66
2022/04/28 05:39:33;;;;;;;1.42;0.80;;;;;;;21.52;40.10;101795.81;4182725;28;20090;-67
2022/04/28 05:41:36;;;;;;;1.98;0.82;;;;;;;21.51;40.50;101797.75;4181874;28;20071;-66
2022/04/28 05:45:57;;;;;;;0.90;0.80;;;;;;;21.30;40.17;101752.16;4183037;28;20106;-67
2022/04/28 05:47:59;;;;;;;0.82;0.80;;;;;;;21.45;40.10;101775.72;4181484;28;20032;-66
2022/04/28 05:50:01;;;;;;;0.70;0.70;;;;;;;21.51;40.35;101791.34;4181898;28;20087;-67
2022/04/28 05:52:07;;;;;;;1.02;0.73;;;;;;;21.49;40.29;101788.00;4181890;28;20041;-67
2022/04/28 05:54:08;;;;;;;1.35;0.80;;;;;;;21.48;39.82;101791.88;4181838;28;20040;-66
2022/04/28 05:56:10;;;;;;;1.35;0.88;;;;;;;21.42;40.41;101791.00;4181652;28;20090;-69
2022/04/28 05:58:11;;;;;;;0.80;0.77;;;;;;;21.47;39.79;101793.81;4182100;28;20041;-67
2022/04/28 06:00:14;;;;;;;0.75;0.70;;;;;;;21.46;40.23;101796.88;4181759;28;20044;-69
2022/04/28 06:02:18;;;;;;;0.85;0.70;;;;;;;21.46;40.10;101792.16;4181699;28;20090;-68
2022/04/28 06:04:20;;;;;;;1.67;0.70;;;;;;;21.49;39.90;101793.56;4181607;28;20037;-68
2022/04/28 06:06:21;;;;;;;1.27;0.75;;;;;;;21.47;40.16;101788.25;4181264;28;20103;-68
2022/04/28 06:08:22;;;;;;;1.20;0.80;;;;;;;21.48;40.00;101789.09;4181571;28;20041;-69
2022/04/28 06:10:24;;;;;;;1.25;0.70;;;;;;;21.48;40.17;101789.09;4181922;28;20041;-68
2022/04/28 06:12:27;;;;;;;0.98;0.75;;;;;;;21.47;40.37;101791.03;4181995;28;20086;-69
2022/04/28 06:14:35;;;;;;;0.80;0.75;;;;;;;21.50;40.28;101793.31;4182150;28;20083;-67
2022/04/28 06:16:37;;;;;;;2.78;0.90;;;;;;;21.47;40.14;101787.41;4181022;28;20122;-67
2022/04/28 06:18:39;;;;;;;1.67;0.65;;;;;;;21.44;40.16;101774.00;4181250;28;20045;-67
2022/04/28 06:20:43;;;;;;;1.20;0.90;;;;;;;21.57;40.24;101807.00;4181252;28;20143;-67
2022/04/28 06:22:44;;;;;;;3.25;1.77;;;;;;;21.57;40.09;101785.56;4181186;28;20041;-67
2022/04/28 06:24:54;;;;;;;4.43;1.95;;;;;;;21.61;40.06;101796.16;4181526;28;20049;-68
2022/04/28 06:26:56;;;;;;;4.30;2.42;;;;;;;21.62;40.23;101793.13;4181935;28;20041;-66
2022/04/28 06:28:57;;;;;;;6.15;2.80;;;;;;;21.61;40.15;101785.03;4181917;28;20045;-67
2022/04/28 06:30:58;;;;;;;6.00;3.25;;;;;;;21.63;40.06;101778.09;4183876;28;20041;-67
2022/04/28 06:33:00;;;;;;;6.53;2.78;;;;;;;21.65;40.23;101780.63;4181810;28;20033;-67
2022/04/28 06:35:04;;;;;;;6.00;3.22;;;;;;;21.61;39.90;101763.59;4183460;28;20036;-66
2022/04/28 06:37:05;;;;;;;6.72;3.38;;;;;;;21.67;40.19;101770.91;4183125;28;20114;-68
2022/04/28 06:39:07;;;;;;;4.78;3.08;;;;;;;21.65;39.78;101772.25;4183880;28;20431;-66
2022/04/28 06:41:09;;;;;;;7.15;3.25;;;;;;;21.61;40.04;101752.44;4183839;28;20049;-67
2022/04/28 06:43:11;;;;;;;6.68;2.88;;;;;;;21.60;39.94;101750.78;4185549;28;20478;-66
2022/04/28 06:45:13;;;;;;;5.10;3.35;;;;;;;21.69;39.86;101771.47;4183370;28;20381;-67
2022/04/28 06:47:14;;;;;;;7.25;3.08;;;;;;;21.63;39.98;101764.19;4183476;28;20037;-67
2022/04/28 06:49:16;;;;;;;6.05;3.35;;;;;;;21.69;40.15;101765.06;4182861;28;20057;-67
2022/04/28 06:51:21;;;;;;;7.18;3.45;;;;;;;21.69;40.15;101777.03;4185442;28;20029;-67
2022/04/28 06:53:22;;;;;;;6.47;3.47;;;;;;;21.62;40.01;101764.44;4186044;28;20045;-66
2022/04/28 06:55:24;;;;;;;6.35;2.97;;;;;;;21.50;39.91;101748.75;4185478;28;20056;-66
2022/04/28 06:57:26;;;;;;;4.82;3.03;;;;;;;21.66;40.11;101771.97;4185113;28;20423;-67
2022/04/28 06:59:27;;;;;;;5.88;3.45;;;;;;;21.70;39.92;101781.50;4185612;28;20037;-67
2022/04/28 07:01:29;;;;;;;6.53;2.92;;;;;;;21.70;39.83;101773.13;4185199;28;20476;-66
2022/04/28 07:03:32;;;;;;;5.57;3.10;;;;;;;21.70;39.93;101766.72;4184914;28;20087;-66
2022/04/28 07:05:34;;;;;;;4.50;2.72;;;;;;;21.70;39.83;101759.19;4185306;28;20075;-67
2022/04/28 07:07:35;;;;;;;5.90;3.03;;;;;;;21.70;39.79;101767.56;4184474;28;20040;-68
2022/04/28 07:09:37;;;;;;;5.60;2.47;;;;;;;21.70;39.77;101762.00;4185974;28;20419;-66
2022/04/28 07:11:38;;;;;;;5.05;3.13;;;;;;;21.69;39.71;101770.63;4185404;28;20037;-65
2022/04/28 07:13:40;;;;;;;5.00;2.90;;;;;;;21.68;39.59;101775.34;4186045;28;20037;-67
2022/04/28 07:15:42;;;;;;;5.15;2.70;;;;;;;21.65;39.79;101764.75;4186148;28;20067;-68
2022/04/28 07:17:44;;;;;;;4.97;2.83;;;;;;;21.67;39.90;101770.03;4187149;28;20033;-66
2022/04/28 07:19:46;;;;;;;8.93;3.55;;;;;;;21.62;39.66;101770.00;4185822;28;20094;-66
2022/04/28 07:21:47;;;;;;;6.90;3.13;;;;;;;21.64;39.74;101774.22;4186686;28;20045;-66
2022/04/28 07:23:48;;;;;;;6.60;3.78;;;;;;;21.59;39.41;101771.38;4186384;28;20041;-66
2022/04/28 07:25:52;;;;;;;10.07;4.55;;;;;;;21.62;39.82;101787.53;4185687;28;20048;-67
2022/04/28 07:27:55;;;;;;;8.85;4.18;;;;;;;21.57;39.41;101774.41;4181586;28;20037;-67
2022/04/28 07:29:57;;;;;;;7.05;4.28;;;;;;;21.56;39.56;101772.75;4184479;28;20100;-67
2022/04/28 07:31:58;;;;;;;7.55;4.60;;;;;;;21.55;39.36;101770.22;4182541;28;20045;-68
2022/04/28 07:34:20;;;;;;;7.07;4.00;;;;;;;21.51;39.46;101763.50;4181589;28;20036;-68
2022/04/28 07:36:21;;;;;;;6.85;3.97;;;;;;;21.46;39.50;101755.13;4183008;28;20045;-67
2022/04/28 07:38:26;;;;;;;9.02;4.82;;;;;;;21.53;39.20;101767.72;4185365;28;20037;-67
2022/04/28 07:40:28;;;;;;;8.68;4.45;;;;;;;21.54;39.42;101769.41;4183280;28;20067;-68
2022/04/28 07:42:29;;;;;;;7.70;4.25;;;;;;;21.53;39.38;101769.63;4183599;28;20378;-67
2022/04/28 07:44:31;;;;;;;7.63;3.85;;;;;;;21.44;39.47;101755.38;4185400;28;20037;-67
2022/04/28 07:46:32;;;;;;;6.65;4.10;;;;;;;21.51;39.20;101757.94;4185732;28;20049;-66
2022/04/28 07:48:37;;;;;;;5.50;3.70;;;;;;;21.52;38.99;101765.19;4185698;28;20548;-68
2022/04/28 07:50:38;;;;;;;8.73;3.37;;;;;;;21.50;39.21;101761.84;4184497;28;20435;-67
2022/04/28 07:52:40;;;;;;;6.78;3.92;;;;;;;21.49;39.09;101768.50;4186546;28;20324;-67
2022/04/28 07:54:41;;;;;;;6.68;3.28;;;;;;;21.47;38.91;101757.63;4187683;28;20033;-67
2022/04/28 07:56:45;;;;;;;5.05;3.20;;;;;;;21.49;38.99;101757.38;4187725;28;20468;-67
2022/04/28 07:58:48;;;;;;;5.57;3.53;;;;;;;21.48;38.81;101758.47;4187512;28;20462;-67
2022/04/28 08:00:50;;;;;;;5.55;3.17;;;;;;;21.49;39.28;101760.16;4187637;28;20558;-67
2022/04/28 08:02:52;;;;;;;5.85;3.30;;;;;;;21.48;39.15;101759.28;4187019;28;20040;-67
2022/04/28 08:04:54;;;;;;;5.72;3.47;;;;;;;21.47;38.79;101754.84;4185870;28;20496;-67
2022/04/28 08:06:56;;;;;;;5.07;2.90;;;;;;;21.48;38.83;101756.50;4186830;28;20037;-67
2022/04/28 08:08:59;;;;;;;9.20;3.28;;;;;;;21.47;39.04;101745.66;4186505;28;20377;-67
2022/04/28 08:11:01;;;;;;;5.85;2.92;;;;;;;21.47;39.04;101745.66;4186128;28;20036;-67
2022/04/28 08:13:02;;;;;;;5.07;3.10;;;;;;;21.46;38.75;101743.97;4186098;28;20037;-67
2022/04/28 08:15:05;;;;;;;3.20;2.20;;;;;;;21.46;38.76;101744.81;4186477;28;20041;-67
2022/04/28 08:17:06;;;;;;;5.10;2.75;;;;;;;21.46;38.74;101743.97;4187029;28;20095;-66
2022/04/28 08:19:09;;;;;;;4.63;2.63;;;;;;;21.45;38.48;101742.31;4187623;28;20037;-67
2022/04/28 08:21:10;;;;;;;4.22;2.63;;;;;;;21.44;38.68;101740.59;4185235;28;20041;-67
2022/04/28 08:23:12;;;;;;;4.22;2.38;;;;;;;21.43;38.88;101739.75;4186315;28;20041;-67
2022/04/28 08:25:14;;;;;;;4.40;2.28;;;;;;;21.44;38.95;101735.03;4186952;28;20103;-68
2022/04/28 08:27:15;;;;;;;3.13;2.08;;;;;;;21.40;38.84;101731.13;4188204;28;20103;-66
2022/04/28 08:29:17;;;;;;;4.57;2.28;;;;;;;21.42;38.85;101742.81;4187876;28;20067;-65
2022/04/28 08:31:19;;;;;;;3.45;2.22;;;;;;;21.42;38.83;101737.25;4186264;28;20440;-68
2022/04/28 08:33:20;;;;;;;4.38;2.50;;;;;;;21.42;38.68;101740.03;4186295;28;20045;-67
2022/04/28 08:35:22;;;;;;;4.30;2.33;;;;;;;21.41;38.71;101739.19;4185200;28;20488;-67
2022/04/28 08:37:23;;;;;;;3.33;2.20;;;;;;;21.42;38.44;101742.81;4186947;28;20075;-67
2022/04/28 08:39:25;;;;;;;3.30;2.10;;;;;;;21.42;38.41;101737.25;4187322;28;20033;-67
2022/04/28 08:41:37;;;;;;;3.63;2.00;;;;;;;21.39;38.85;101726.63;4186381;28;20094;-67
2022/04/28 08:43:41;;;;;;;3.17;2.10;;;;;;;21.40;38.36;101740.31;4183065;28;20036;-68
2022/04/28 08:48:10;;;;;;;3.15;1.70;;;;;;;21.36;38.80;101738.31;4183430;28;20526;-68
2022/04/28 08:50:11;;;;;;;3.03;2.10;;;;;;;21.38;38.61;101736.94;4183066;28;20067;-68
2022/04/28 08:52:16;;;;;;;2.42;1.50;;;;;;;21.30;38.51;101724.31;4183012;28;20037;-68
2022/04/28 08:54:18;;;;;;;2.80;1.90;;;;;;;21.35;38.70;101728.25;4182716;28;20040;-68
2022/04/28 08:56:21;;;;;;;1.63;1.40;;;;;;;21.35;38.84;101731.06;4181711;28;20040;-68
2022/04/28 08:58:24;;;;;;;2.05;1.63;;;;;;;21.34;38.80;101729.38;4182871;28;20120;-67
2022/04/28 09:00:25;;;;;;;2.00;1.63;;;;;;;21.34;38.56;101726.59;4182795;28;20029;-68
2022/04/28 09:02:32;;;;;;;3.47;1.77;;;;;;;21.34;38.64;101723.81;4182843;28;20122;-68
2022/04/28 09:04:34;;;;;;;3.22;1.63;;;;;;;21.34;38.68;101729.38;4182936;28;20083;-68
2022/04/28 09:06:36;;;;;;;1.80;1.50;;;;;;;21.34;38.18;101723.81;4180977;28;20094;-67
2022/04/28 09:08:37;;;;;;;2.30;1.70;;;;;;;21.31;38.12;101725.19;4182808;28;20048;-68
2022/04/28 09:10:40;;;;;;;1.88;1.30;;;;;;;21.31;38.64;101728.81;4182643;28;20095;-67
2022/04/28 09:15:22;;;;;;;2.15;1.35;;;;;;;21.31;38.54;101720.47;4182395;28;20091;-68
2022/04/28 09:17:39;;;;;;;1.80;1.35;;;;;;;21.30;38.41;101724.31;4182303;28;20095;-68
2022/04/28 09:19:45;;;;;;;1.80;1.40;;;;;;;21.22;38.14;101710.88;4183078;28;20087;-68
2022/04/28 09:21:53;;;;;;;1.88;1.65;;;;;;;21.29;38.05;101728.19;4181705;28;20025;-67
2022/04/28 09:23:54;;;;;;;3.00;1.63;;;;;;;21.25;38.31;101715.91;4182414;28;20041;-68
2022/04/28 09:25:56;;;;;;;1.85;1.40;;;;;;;21.28;38.16;101720.13;4181744;28;20033;-68
2022/04/28 09:28:00;;;;;;;2.17;1.38;;;;;;;21.24;38.00;101719.78;4182305;28;20041;-67
2022/04/28 09:30:02;;;;;;;2.63;1.20;;;;;;;21.26;38.31;101725.97;4182304;28;20028;-67
2022/04/28 09:32:10;;;;;;;1.73;1.25;;;;;;;21.26;38.30;101730.69;4182093;28;20095;-67
2022/04/28 09:34:27;;;;;;;1.27;1.10;;;;;;;21.26;38.16;101730.69;4182340;28;20668;-68
2022/04/28 09:36:29;;;;;;;1.58;1.15;;;;;;;21.25;38.26;101731.78;4181581;28;20040;-69
2022/04/28 09:38:34;;;;;;;1.40;1.20;;;;;;;21.24;38.37;101732.88;4181695;28;20044;-68
2022/04/28 09:42:57;;;;;;;1.83;1.33;;;;;;;21.22;38.29;101735.94;4182599;28;20091;-68
2022/04/28 09:45:03;;;;;;;1.98;1.25;;;;;;;21.23;38.40;101740.41;4182377;28;20033;-69
2022/04/28 09:47:05;;;;;;;1.48;1.08;;;;;;;21.24;38.16;101735.66;4181829;28;20472;-70
2022/04/28 09:49:07;;;;;;;1.65;1.10;;;;;;;21.22;38.02;101744.28;4187176;28;20122;-68
2022/04/28 09:51:12;;;;;;;1.27;1.10;;;;;;;21.22;38.41;101752.63;4181604;28;20091;-69
2022/04/28 09:53:15;;;;;;;1.33;1.00;;;;;;;21.21;38.47;101742.63;4181393;28;20159;-68